createdAt,value
2022-08-28T00:00:38.920Z,56.20
2022-08-28T00:01:39.165Z,56.50
2022-08-28T00:02:39.437Z,60.40
2022-08-28T00:03:39.674Z,53.20
2022-08-28T00:04:39.963Z,53.20
2022-08-28T00:05:40.188Z,47.80
2022-08-28T00:06:40.435Z,48.80
2022-08-28T00:07:44.300Z,45.20
2022-08-28T00:08:41.966Z,54.40
2022-08-28T00:09:41.225Z,51.60
2022-08-28T00:10:41.469Z,44.10
2022-08-28T00:11:41.729Z,39.70
2022-08-28T00:12:41.980Z,47.60
2022-08-28T00:13:42.213Z,46.60
2022-08-28T00:14:42.456Z,51.70
2022-08-28T00:15:42.747Z,38.80
2022-08-28T00:16:43.039Z,40.70
2022-08-28T00:17:43.276Z,43.40
2022-08-28T00:18:43.523Z,45.00
2022-08-28T00:19:43.787Z,37.10
2022-08-28T00:20:44.032Z,40.10
2022-08-28T00:21:44.285Z,36.80
2022-08-28T00:22:44.523Z,30.20
2022-08-28T00:23:44.763Z,39.60
2022-08-28T00:24:45.012Z,38.80
2022-08-28T00:25:45.251Z,40.60
2022-08-28T00:26:45.513Z,39.30
2022-08-28T00:27:45.750Z,36.10
2022-08-28T00:28:45.992Z,37.70
2022-08-28T00:29:46.233Z,34.80
2022-08-28T00:30:46.495Z,33.30
2022-08-28T00:31:46.837Z,38.60
2022-08-28T00:32:46.953Z,32.90
2022-08-28T00:33:48.245Z,39.20
2022-08-28T00:34:47.409Z,34.20
2022-08-28T00:35:47.650Z,34.30
2022-08-28T00:36:47.913Z,35.90
2022-08-28T00:37:48.303Z,41.10
2022-08-28T00:38:48.479Z,33.60
2022-08-28T00:39:48.724Z,38.20
2022-08-28T00:40:49.011Z,30.00
2022-08-28T00:41:49.187Z,35.30
2022-08-28T00:42:50.396Z,31.40
2022-08-28T00:43:49.616Z,29.10
2022-08-28T00:44:49.863Z,28.70
2022-08-28T00:45:50.103Z,32.40
2022-08-28T00:46:50.439Z,38.60
2022-08-28T00:47:50.550Z,32.90
2022-08-28T00:48:50.792Z,30.70
2022-08-28T00:49:51.040Z,33.80
2022-08-28T00:50:51.281Z,28.90
2022-08-28T00:51:51.543Z,31.60
2022-08-28T00:52:51.790Z,32.90
2022-08-28T00:53:54.651Z,27.70
2022-08-28T00:54:58.453Z,27.10
2022-08-28T00:55:53.531Z,30.80
2022-08-28T00:56:52.790Z,35.10
2022-08-28T00:57:53.037Z,31.10
2022-08-28T00:58:53.288Z,27.80
2022-08-28T00:59:53.539Z,36.20
2022-08-28T01:00:53.813Z,32.70
2022-08-28T01:01:54.130Z,33.00
2022-08-28T01:02:54.307Z,28.80
2022-08-28T01:03:54.450Z,31.30
2022-08-28T01:04:54.705Z,29.90
2022-08-28T01:05:54.957Z,27.30
2022-08-28T01:06:55.229Z,31.80
2022-08-28T01:07:55.499Z,29.30
2022-08-28T01:08:55.760Z,31.30
2022-08-28T01:09:56.030Z,28.40
2022-08-28T01:10:56.288Z,35.10
2022-08-28T01:11:56.652Z,37.00
2022-08-28T01:12:56.769Z,29.90
2022-08-28T01:13:57.013Z,30.90
2022-08-28T01:14:57.288Z,31.00
2022-08-28T01:15:57.567Z,31.70
2022-08-28T01:16:57.896Z,26.60
2022-08-28T01:17:58.035Z,25.70
2022-08-28T01:18:58.280Z,28.50
2022-08-28T01:19:58.543Z,28.80
2022-08-28T01:20:58.789Z,32.30
2022-08-28T01:21:59.056Z,31.60
2022-08-28T01:22:59.317Z,34.80
2022-08-28T01:23:59.564Z,29.50
2022-08-28T01:24:59.818Z,36.10
2022-08-28T01:26:00.062Z,36.00
2022-08-28T01:27:00.356Z,38.70
2022-08-28T01:28:00.608Z,36.50
2022-08-28T01:29:00.852Z,30.50
2022-08-28T01:30:01.106Z,33.00
2022-08-28T01:31:01.383Z,30.80
2022-08-28T01:32:01.619Z,36.50
2022-08-28T01:33:01.869Z,36.60
2022-08-28T01:34:02.149Z,33.00
2022-08-28T01:35:02.395Z,38.20
2022-08-28T01:36:02.637Z,37.20
2022-08-28T01:37:03.754Z,34.20
2022-08-28T01:38:03.142Z,37.60
2022-08-28T01:39:03.388Z,35.60
2022-08-28T01:40:03.697Z,35.90
2022-08-28T01:41:03.936Z,37.60
2022-08-28T01:42:04.198Z,37.40
2022-08-28T01:43:04.443Z,35.20
2022-08-28T01:44:04.677Z,39.90
2022-08-28T01:45:04.949Z,41.00
2022-08-28T01:46:05.239Z,38.40
2022-08-28T01:47:05.495Z,38.00
2022-08-28T01:48:05.744Z,36.00
2022-08-28T01:49:06.000Z,40.30
2022-08-28T01:50:06.237Z,38.50
2022-08-28T01:51:06.477Z,35.90
2022-08-28T01:52:06.736Z,39.60
2022-08-28T01:53:06.983Z,39.10
2022-08-28T01:54:08.175Z,32.80
2022-08-28T01:55:07.393Z,37.00
2022-08-28T01:56:07.615Z,38.90
2022-08-28T01:57:07.878Z,42.20
2022-08-28T01:58:08.133Z,34.70
2022-08-28T01:59:08.375Z,38.30
2022-08-28T02:00:08.630Z,39.30
2022-08-28T02:01:08.870Z,41.30
2022-08-28T02:02:09.206Z,40.70
2022-08-28T02:03:09.369Z,37.00
2022-08-28T02:04:09.665Z,35.20
2022-08-28T02:05:09.898Z,40.50
2022-08-28T02:06:10.146Z,46.10
2022-08-28T02:07:10.425Z,41.60
2022-08-28T02:08:10.713Z,41.20
2022-08-28T02:09:14.577Z,46.50
2022-08-28T02:10:11.201Z,36.80
2022-08-28T02:11:11.435Z,46.70
2022-08-28T02:12:11.694Z,42.00
2022-08-28T02:13:11.934Z,34.40
2022-08-28T02:14:12.188Z,44.00
2022-08-28T02:15:12.466Z,43.80
2022-08-28T02:16:12.783Z,34.80
2022-08-28T02:17:13.021Z,37.90
2022-08-28T02:18:13.349Z,38.50
2022-08-28T02:19:13.554Z,36.80
2022-08-28T02:20:13.813Z,34.50
2022-08-28T02:21:14.064Z,37.50
2022-08-28T02:22:14.324Z,39.20
2022-08-28T02:23:14.585Z,31.00
2022-08-28T02:24:14.833Z,40.40
2022-08-28T02:25:15.074Z,33.70
2022-08-28T02:26:15.321Z,35.60
2022-08-28T02:27:15.586Z,35.60
2022-08-28T02:28:15.835Z,40.50
2022-08-28T02:29:16.097Z,34.70
2022-08-28T02:30:16.371Z,34.00
2022-08-28T02:31:16.678Z,34.10
2022-08-28T02:32:16.923Z,35.90
2022-08-28T02:33:17.167Z,29.80
2022-08-28T02:34:17.433Z,33.50
2022-08-28T02:35:17.665Z,35.40
2022-08-28T02:36:17.913Z,34.30
2022-08-28T02:37:18.155Z,27.90
2022-08-28T02:38:18.843Z,30.30
2022-08-28T02:39:18.713Z,31.10
2022-08-28T02:40:18.994Z,33.70
2022-08-28T02:41:19.202Z,32.50
2022-08-28T02:42:19.475Z,30.70
2022-08-28T02:43:19.714Z,25.90
2022-08-28T02:44:19.949Z,30.80
2022-08-28T02:45:20.191Z,22.70
2022-08-28T02:46:20.472Z,25.60
2022-08-28T02:47:20.730Z,35.50
2022-08-28T02:48:21.069Z,24.20
2022-08-28T02:49:21.241Z,26.50
2022-08-28T02:50:21.499Z,31.20
2022-08-28T02:51:21.745Z,31.30
2022-08-28T02:52:22.000Z,31.00
2022-08-28T02:53:22.249Z,28.50
2022-08-28T02:54:22.492Z,29.40
2022-08-28T02:55:22.730Z,24.80
2022-08-28T02:56:22.967Z,30.60
2022-08-28T02:57:23.233Z,26.50
2022-08-28T02:58:23.484Z,26.70
2022-08-28T02:59:23.751Z,27.20
2022-08-28T03:00:24.011Z,25.00
2022-08-28T03:01:24.304Z,25.90
2022-08-28T03:02:24.650Z,26.10
2022-08-28T03:03:24.800Z,26.40
2022-08-28T03:04:25.052Z,23.30
2022-08-28T03:05:25.300Z,25.20
2022-08-28T03:06:25.541Z,30.90
2022-08-28T03:07:25.802Z,28.60
2022-08-28T03:08:27.248Z,25.00
2022-08-28T03:09:26.324Z,26.30
2022-08-28T03:10:26.581Z,28.00
2022-08-28T03:11:26.835Z,26.00
2022-08-28T03:12:27.110Z,31.40
2022-08-28T03:13:27.522Z,20.20
2022-08-28T03:14:27.667Z,25.30
2022-08-28T03:15:27.930Z,25.40
2022-08-28T03:16:28.206Z,24.70
2022-08-28T03:17:28.494Z,23.40
2022-08-28T03:18:28.743Z,26.20
2022-08-28T03:19:28.988Z,22.30
2022-08-28T03:20:29.239Z,24.20
2022-08-28T03:21:29.499Z,24.10
2022-08-28T03:22:29.770Z,22.70
2022-08-28T03:23:30.015Z,25.60
2022-08-28T03:24:30.257Z,25.10
2022-08-28T03:25:30.498Z,25.70
2022-08-28T03:26:30.744Z,20.10
2022-08-28T03:27:31.007Z,23.00
2022-08-28T03:28:31.252Z,25.10
2022-08-28T03:29:31.494Z,26.80
2022-08-28T03:30:31.782Z,28.00
2022-08-28T03:31:31.992Z,25.10
2022-08-28T03:32:32.251Z,25.60
2022-08-28T03:33:32.500Z,23.10
2022-08-28T03:34:32.750Z,24.30
2022-08-28T03:35:32.987Z,21.90
2022-08-28T03:36:33.236Z,23.50
2022-08-28T03:37:33.496Z,22.70
2022-08-28T03:38:33.750Z,24.50
2022-08-28T03:39:34.005Z,22.80
2022-08-28T03:40:34.364Z,24.20
2022-08-28T03:41:34.624Z,20.00
2022-08-28T03:42:34.885Z,25.90
2022-08-28T03:43:35.146Z,22.10
2022-08-28T03:44:35.400Z,24.60
2022-08-28T03:45:35.701Z,23.50
2022-08-28T03:46:35.919Z,23.00
2022-08-28T03:47:36.226Z,24.00
2022-08-28T03:48:36.464Z,27.10
2022-08-28T03:49:36.726Z,23.10
2022-08-28T03:50:36.961Z,22.60
2022-08-28T03:51:37.205Z,26.50
2022-08-28T03:52:37.467Z,31.10
2022-08-28T03:53:37.707Z,32.70
2022-08-28T03:54:37.954Z,26.40
2022-08-28T03:55:38.194Z,23.40
2022-08-28T03:56:38.454Z,21.90
2022-08-28T03:57:38.715Z,23.30
2022-08-28T03:58:38.959Z,20.90
2022-08-28T03:59:39.224Z,22.40
2022-08-28T04:00:39.468Z,28.70
2022-08-28T04:01:39.769Z,23.50
2022-08-28T04:02:39.945Z,25.00
2022-08-28T04:03:40.244Z,27.00
2022-08-28T04:04:40.505Z,26.00
2022-08-28T04:05:40.745Z,22.80
2022-08-28T04:06:40.994Z,24.10
2022-08-28T04:07:41.252Z,22.10
2022-08-28T04:08:41.500Z,22.90
2022-08-28T04:09:41.744Z,22.40
2022-08-28T04:10:41.999Z,20.90
2022-08-28T04:11:42.235Z,23.20
2022-08-28T04:12:42.510Z,26.40
2022-08-28T04:13:42.746Z,24.30
2022-08-28T04:14:42.994Z,27.60
2022-08-28T04:15:43.239Z,23.50
2022-08-28T04:16:43.523Z,23.20
2022-08-28T04:17:43.819Z,28.90
2022-08-28T04:18:43.958Z,21.70
2022-08-28T04:19:44.213Z,28.40
2022-08-28T04:20:46.535Z,23.40
2022-08-28T04:21:44.720Z,24.40
2022-08-28T04:22:45.223Z,19.10
2022-08-28T04:23:45.245Z,29.30
2022-08-28T04:24:45.503Z,30.60
2022-08-28T04:25:45.736Z,22.90
2022-08-28T04:26:45.983Z,25.90
2022-08-28T04:27:46.240Z,24.70
2022-08-28T04:28:46.491Z,26.30
2022-08-28T04:29:46.737Z,30.00
2022-08-28T04:30:46.989Z,22.30
2022-08-28T04:31:54.289Z,29.10
2022-08-28T04:32:47.524Z,21.10
2022-08-28T04:33:49.466Z,19.80
2022-08-28T04:34:48.044Z,27.80
2022-08-28T04:35:48.301Z,21.80
2022-08-28T04:36:48.564Z,25.50
2022-08-28T04:37:48.833Z,27.10
2022-08-28T04:38:49.093Z,19.50
2022-08-28T04:39:49.337Z,23.30
2022-08-28T04:40:49.618Z,23.80
2022-08-28T04:41:49.872Z,25.50
2022-08-28T04:42:50.185Z,24.10
2022-08-28T04:43:50.436Z,24.40
2022-08-28T04:44:50.692Z,25.20
2022-08-28T04:45:50.980Z,24.80
2022-08-28T04:46:51.228Z,21.40
2022-08-28T04:47:51.553Z,30.10
2022-08-28T04:48:51.800Z,24.10
2022-08-28T04:49:52.048Z,21.60
2022-08-28T04:50:52.308Z,29.30
2022-08-28T04:51:52.581Z,24.10
2022-08-28T04:52:52.859Z,23.60
2022-08-28T04:53:53.141Z,20.20
2022-08-28T04:54:53.372Z,23.20
2022-08-28T04:55:55.243Z,22.50
2022-08-28T04:56:53.871Z,20.70
2022-08-28T04:57:54.136Z,24.00
2022-08-28T04:58:54.390Z,17.40
2022-08-28T04:59:54.693Z,24.00
2022-08-28T05:00:55.111Z,23.70
2022-08-28T05:01:55.224Z,26.70
2022-08-28T05:02:55.530Z,22.50
2022-08-28T05:03:55.769Z,25.10
2022-08-28T05:04:56.054Z,20.10
2022-08-28T05:05:56.315Z,27.10
2022-08-28T05:06:56.578Z,25.10
2022-08-28T05:07:56.866Z,23.30
2022-08-28T05:08:57.108Z,29.00
2022-08-28T05:09:57.374Z,22.90
2022-08-28T05:10:57.606Z,26.70
2022-08-28T05:11:57.849Z,24.10
2022-08-28T05:12:58.135Z,23.70
2022-08-28T05:13:58.384Z,25.10
2022-08-28T05:14:58.651Z,26.80
2022-08-28T05:15:58.981Z,28.90
2022-08-28T05:16:59.217Z,25.00
2022-08-28T05:17:59.592Z,18.00
2022-08-28T05:18:59.810Z,23.90
2022-08-28T05:20:00.057Z,25.90
2022-08-28T05:21:00.306Z,24.60
2022-08-28T05:22:00.559Z,28.40
2022-08-28T05:23:00.848Z,25.50
2022-08-28T05:24:01.113Z,31.00
2022-08-28T05:25:01.433Z,23.40
2022-08-28T05:26:01.708Z,22.40
2022-08-28T05:27:01.965Z,22.20
2022-08-28T05:28:02.245Z,21.20
2022-08-28T05:29:02.494Z,25.20
2022-08-28T05:30:02.755Z,26.10
2022-08-28T05:31:03.017Z,22.80
2022-08-28T05:32:03.309Z,30.20
2022-08-28T05:33:03.613Z,28.70
2022-08-28T05:34:03.826Z,27.20
2022-08-28T05:35:04.082Z,24.90
2022-08-28T05:36:04.324Z,21.30
2022-08-28T05:37:04.596Z,24.10
2022-08-28T05:38:04.865Z,28.60
2022-08-28T05:39:05.120Z,23.10
2022-08-28T05:40:05.436Z,24.80
2022-08-28T05:41:05.571Z,30.20
2022-08-28T05:42:05.895Z,26.90
2022-08-28T05:43:06.133Z,25.60
2022-08-28T05:44:06.425Z,26.50
2022-08-28T05:45:06.777Z,31.60
2022-08-28T05:46:07.007Z,26.30
2022-08-28T05:47:07.165Z,28.50
2022-08-28T05:48:07.438Z,27.30
2022-08-28T05:49:09.981Z,23.40
2022-08-28T05:50:07.963Z,28.50
2022-08-28T05:51:08.237Z,34.40
2022-08-28T05:52:08.491Z,27.10
2022-08-28T05:53:08.755Z,23.30
2022-08-28T05:54:09.015Z,30.30
2022-08-28T05:55:09.438Z,32.90
2022-08-28T05:56:09.477Z,27.80
2022-08-28T05:57:09.747Z,30.60
2022-08-28T05:58:10.004Z,25.80
2022-08-28T05:59:10.310Z,30.10
2022-08-28T06:00:10.462Z,26.40
2022-08-28T06:01:10.714Z,29.20
2022-08-28T06:02:10.984Z,28.80
2022-08-28T06:03:11.236Z,30.40
2022-08-28T06:04:11.529Z,31.30
2022-08-28T06:05:13.052Z,27.30
2022-08-28T06:06:11.903Z,29.60
2022-08-28T06:07:12.174Z,26.90
2022-08-28T06:08:12.506Z,28.10
2022-08-28T06:09:12.753Z,24.50
2022-08-28T06:10:13.031Z,27.90
2022-08-28T06:11:13.286Z,28.40
2022-08-28T06:12:13.466Z,27.10
2022-08-28T06:13:13.773Z,27.30
2022-08-28T06:14:14.041Z,30.50
2022-08-28T06:15:14.316Z,27.30
2022-08-28T06:16:14.619Z,31.90
2022-08-28T06:17:14.883Z,28.90
2022-08-28T06:18:15.232Z,25.50
2022-08-28T06:19:15.339Z,25.50
2022-08-28T06:20:15.663Z,30.40
2022-08-28T06:21:15.871Z,28.70
2022-08-28T06:22:16.099Z,29.00
2022-08-28T06:23:16.378Z,32.10
2022-08-28T06:24:17.662Z,24.30
2022-08-28T06:25:16.785Z,25.30
2022-08-28T06:26:17.032Z,28.10
2022-08-28T06:27:17.288Z,24.90
2022-08-28T06:28:17.561Z,25.90
2022-08-28T06:29:17.844Z,23.40
2022-08-28T06:30:18.064Z,25.60
2022-08-28T06:31:23.249Z,26.70
2022-08-28T06:32:19.559Z,23.60
2022-08-28T06:33:18.827Z,29.90
2022-08-28T06:34:19.056Z,25.80
2022-08-28T06:35:19.408Z,30.20
2022-08-28T06:36:19.531Z,28.20
2022-08-28T06:37:19.845Z,24.80
2022-08-28T06:38:20.081Z,26.00
2022-08-28T06:39:20.330Z,29.00
2022-08-28T06:40:20.637Z,26.80
2022-08-28T06:41:20.863Z,28.40
2022-08-28T06:42:21.145Z,25.90
2022-08-28T06:43:21.391Z,24.80
2022-08-28T06:44:21.730Z,25.60
2022-08-28T06:45:21.886Z,25.50
2022-08-28T06:46:22.256Z,33.20
2022-08-28T06:47:22.391Z,24.00
2022-08-28T06:48:22.721Z,35.10
2022-08-28T06:49:22.895Z,25.30
2022-08-28T06:50:23.111Z,21.30
2022-08-28T06:51:25.219Z,27.10
2022-08-28T06:52:23.634Z,25.60
2022-08-28T06:53:23.931Z,29.30
2022-08-28T06:54:24.059Z,29.30
2022-08-28T06:55:24.340Z,24.80
2022-08-28T06:56:25.738Z,26.30
2022-08-28T06:57:24.858Z,24.90
2022-08-28T06:58:25.108Z,31.50
2022-08-28T06:59:25.364Z,28.60
2022-08-28T07:00:25.653Z,29.20
2022-08-28T07:01:25.990Z,25.60
2022-08-28T07:02:28.198Z,25.80
2022-08-28T07:03:26.422Z,25.70
2022-08-28T07:04:26.664Z,23.50
2022-08-28T07:05:26.892Z,22.90
2022-08-28T07:06:27.151Z,24.90
2022-08-28T07:07:32.428Z,22.40
2022-08-28T07:08:28.683Z,24.70
2022-08-28T07:09:27.788Z,22.20
2022-08-28T07:10:28.028Z,26.70
2022-08-28T07:11:28.269Z,28.60
2022-08-28T07:12:28.524Z,23.30
2022-08-28T07:13:33.317Z,25.70
2022-08-28T07:14:29.965Z,22.00
2022-08-28T07:15:29.247Z,21.70
2022-08-28T07:16:29.491Z,24.30
2022-08-28T07:17:29.758Z,22.50
2022-08-28T07:18:30.020Z,24.10
2022-08-28T07:19:30.298Z,23.80
2022-08-28T07:20:30.527Z,24.80
2022-08-28T07:21:30.779Z,19.00
2022-08-28T07:22:31.002Z,23.30
2022-08-28T07:23:31.282Z,20.40
2022-08-28T07:24:31.530Z,19.80
2022-08-28T07:25:31.750Z,23.30
2022-08-28T07:26:31.992Z,18.60
2022-08-28T07:27:32.188Z,22.00
2022-08-28T07:28:32.442Z,22.10
2022-08-28T07:29:32.661Z,19.60
2022-08-28T07:30:32.876Z,27.60
2022-08-28T07:31:33.138Z,30.40
2022-08-28T07:32:33.378Z,25.50
2022-08-28T07:33:33.601Z,21.60
2022-08-28T07:34:33.852Z,24.90
2022-08-28T07:35:34.065Z,19.00
2022-08-28T07:36:34.274Z,24.20
2022-08-28T07:37:34.489Z,19.40
2022-08-28T07:38:34.759Z,24.00
2022-08-28T07:39:34.971Z,22.60
2022-08-28T07:40:35.255Z,25.80
2022-08-28T07:41:35.502Z,18.90
2022-08-28T07:42:35.857Z,21.80
2022-08-28T07:43:35.959Z,20.00
2022-08-28T07:44:36.213Z,23.10
2022-08-28T07:45:36.451Z,24.10
2022-08-28T07:46:36.575Z,20.20
2022-08-28T07:47:36.819Z,17.00
2022-08-28T07:48:37.051Z,29.80
2022-08-28T07:49:37.274Z,21.20
2022-08-28T07:50:37.478Z,20.40
2022-08-28T07:51:37.694Z,16.80
2022-08-28T07:52:37.933Z,21.20
2022-08-28T07:53:38.158Z,17.60
2022-08-28T07:54:38.382Z,19.10
2022-08-28T07:55:38.591Z,22.90
2022-08-28T07:56:38.806Z,21.40
2022-08-28T07:57:38.983Z,19.40
2022-08-28T07:58:39.223Z,18.60
2022-08-28T07:59:39.407Z,22.80
2022-08-28T08:00:39.628Z,22.20
2022-08-28T08:01:39.906Z,20.00
2022-08-28T08:02:40.037Z,24.20
2022-08-28T08:03:40.287Z,19.10
2022-08-28T08:04:40.498Z,18.90
2022-08-28T08:05:40.697Z,27.40
2022-08-28T08:06:40.913Z,20.20
2022-08-28T08:07:41.966Z,20.70
2022-08-28T08:08:41.400Z,21.00
2022-08-28T08:09:41.622Z,24.20
2022-08-28T08:10:41.840Z,17.50
2022-08-28T08:11:41.998Z,21.30
2022-08-28T08:12:42.260Z,19.70
2022-08-28T08:13:42.455Z,20.00
2022-08-28T08:14:42.651Z,20.60
2022-08-28T08:15:42.876Z,23.80
2022-08-28T08:16:43.117Z,21.20
2022-08-28T08:17:43.351Z,22.30
2022-08-28T08:18:43.608Z,22.60
2022-08-28T08:19:43.831Z,22.20
2022-08-28T08:20:44.046Z,24.20
2022-08-28T08:21:44.255Z,17.50
2022-08-28T08:22:45.451Z,20.20
2022-08-28T08:23:44.665Z,21.60
2022-08-28T08:24:44.868Z,23.60
2022-08-28T08:25:45.094Z,22.20
2022-08-28T08:26:45.315Z,17.30
2022-08-28T08:27:46.686Z,24.80
2022-08-28T08:28:45.713Z,21.50
2022-08-28T08:29:45.826Z,20.80
2022-08-28T08:30:46.086Z,25.00
2022-08-28T08:31:46.296Z,23.50
2022-08-28T08:32:46.503Z,17.20
2022-08-28T08:33:46.729Z,18.80
2022-08-28T08:34:46.949Z,21.70
2022-08-28T08:35:47.209Z,24.30
2022-08-28T08:36:47.342Z,21.40
2022-08-28T08:37:47.542Z,19.10
2022-08-28T08:38:47.784Z,19.30
2022-08-28T08:39:48.007Z,19.20
2022-08-28T08:40:48.348Z,19.20
2022-08-28T08:41:48.509Z,23.70
2022-08-28T08:42:48.636Z,29.70
2022-08-28T08:43:48.904Z,20.60
2022-08-28T08:44:49.105Z,23.10
2022-08-28T08:45:49.350Z,19.80
2022-08-28T08:46:49.497Z,27.10
2022-08-28T08:47:49.791Z,21.10
2022-08-28T08:48:50.252Z,20.60
2022-08-28T08:49:50.310Z,23.10
2022-08-28T08:50:50.324Z,22.50
2022-08-28T08:51:50.537Z,24.10
2022-08-28T08:52:50.735Z,20.90
2022-08-28T08:53:51.002Z,22.40
2022-08-28T08:54:51.229Z,20.50
2022-08-28T08:55:51.446Z,18.00
2022-08-28T08:56:51.650Z,23.00
2022-08-28T08:57:51.888Z,23.20
2022-08-28T08:58:52.109Z,26.20
2022-08-28T08:59:52.318Z,29.40
2022-08-28T09:00:52.554Z,21.90
2022-08-28T09:01:52.857Z,23.40
2022-08-28T09:02:52.974Z,20.50
2022-08-28T09:03:53.831Z,22.00
2022-08-28T09:04:53.470Z,20.60
2022-08-28T09:05:53.671Z,20.90
2022-08-28T09:06:53.909Z,22.80
2022-08-28T09:07:54.160Z,19.90
2022-08-28T09:08:54.439Z,24.10
2022-08-28T09:09:54.546Z,28.50
2022-08-28T09:10:54.791Z,26.10
2022-08-28T09:11:56.504Z,27.00
2022-08-28T09:12:55.314Z,27.80
2022-08-28T09:13:55.564Z,25.00
2022-08-28T09:14:55.801Z,21.30
2022-08-28T09:15:56.070Z,20.00
2022-08-28T09:16:56.318Z,19.80
2022-08-28T09:17:56.539Z,25.70
2022-08-28T09:18:56.799Z,24.60
2022-08-28T09:19:57.011Z,22.60
2022-08-28T09:20:57.238Z,22.60
2022-08-28T09:21:57.454Z,22.80
2022-08-28T09:22:57.766Z,21.30
2022-08-28T09:23:57.924Z,26.30
2022-08-28T09:24:58.154Z,23.00
2022-08-28T09:25:59.793Z,24.50
2022-08-28T09:26:58.643Z,20.10
2022-08-28T09:27:58.751Z,26.10
2022-08-28T09:28:59.117Z,19.50
2022-08-28T09:29:59.236Z,21.50
2022-08-28T09:31:00.453Z,23.70
2022-08-28T09:31:59.617Z,21.20
2022-08-28T09:32:59.859Z,23.10
2022-08-28T09:34:00.093Z,20.60
2022-08-28T09:35:00.318Z,24.50
2022-08-28T09:36:00.543Z,27.20
2022-08-28T09:37:00.788Z,24.60
2022-08-28T09:38:00.998Z,22.30
2022-08-28T09:39:01.227Z,20.90
2022-08-28T09:40:01.517Z,22.10
2022-08-28T09:41:01.673Z,21.70
2022-08-28T09:42:01.907Z,22.80
2022-08-28T09:43:02.169Z,22.80
2022-08-28T09:44:02.429Z,24.60
2022-08-28T09:45:02.698Z,25.10
2022-08-28T09:46:03.909Z,21.30
2022-08-28T09:47:03.119Z,24.10
2022-08-28T09:48:03.338Z,25.20
2022-08-28T09:49:03.628Z,20.30
2022-08-28T09:50:03.753Z,20.90
2022-08-28T09:51:04.012Z,21.20
2022-08-28T09:52:04.228Z,27.70
2022-08-28T09:53:04.440Z,24.90
2022-08-28T09:54:04.688Z,19.50
2022-08-28T09:55:04.910Z,18.90
2022-08-28T09:56:05.139Z,19.70
2022-08-28T09:57:05.351Z,20.30
2022-08-28T09:58:05.561Z,20.50
2022-08-28T09:59:05.788Z,23.30
2022-08-28T10:00:05.988Z,22.00
2022-08-28T10:01:06.226Z,18.80
2022-08-28T10:02:06.533Z,22.90
2022-08-28T10:03:07.758Z,22.80
2022-08-28T10:04:07.073Z,21.80
2022-08-28T10:05:07.170Z,23.20
2022-08-28T10:06:07.379Z,22.30
2022-08-28T10:07:07.600Z,20.20
2022-08-28T10:08:07.806Z,22.40
2022-08-28T10:09:08.089Z,22.30
2022-08-28T10:10:08.192Z,22.90
2022-08-28T10:11:08.403Z,22.40
2022-08-28T10:12:08.691Z,23.00
2022-08-28T10:13:08.873Z,21.50
2022-08-28T10:14:09.099Z,23.20
2022-08-28T10:15:09.305Z,24.80
2022-08-28T10:16:09.596Z,24.50
2022-08-28T10:17:09.802Z,21.30
2022-08-28T10:18:10.026Z,23.80
2022-08-28T10:19:10.308Z,24.40
2022-08-28T10:20:10.437Z,27.10
2022-08-28T10:21:10.660Z,21.50
2022-08-28T10:22:10.895Z,22.10
2022-08-28T10:23:14.505Z,23.80
2022-08-28T10:24:12.306Z,22.10
2022-08-28T10:25:11.527Z,28.40
2022-08-28T10:26:11.757Z,22.10
2022-08-28T10:27:11.996Z,22.50
2022-08-28T10:28:12.516Z,23.70
2022-08-28T10:29:12.679Z,24.90
2022-08-28T10:30:13.522Z,23.20
2022-08-28T10:31:22.760Z,24.30
2022-08-28T10:32:13.150Z,23.30
2022-08-28T10:33:16.042Z,21.70
2022-08-28T10:34:13.608Z,22.40
2022-08-28T10:35:13.834Z,22.40
2022-08-28T10:36:28.790Z,23.80
2022-08-28T10:37:15.345Z,23.70
2022-08-28T10:38:14.775Z,24.50
2022-08-28T10:39:14.865Z,24.70
2022-08-28T10:40:15.104Z,21.70
2022-08-28T10:41:15.337Z,21.40
2022-08-28T10:42:15.561Z,21.40
2022-08-28T10:43:15.790Z,19.90
2022-08-28T10:44:16.042Z,24.70
2022-08-28T10:45:16.264Z,19.90
2022-08-28T10:46:16.576Z,25.00
2022-08-28T10:47:16.717Z,27.10
2022-08-28T10:48:16.951Z,22.00
2022-08-28T10:49:17.193Z,22.20
2022-08-28T10:50:17.429Z,16.30
2022-08-28T10:51:17.676Z,26.40
2022-08-28T10:52:17.914Z,20.90
2022-08-28T10:53:18.139Z,18.70
2022-08-28T10:54:18.387Z,22.10
2022-08-28T10:55:18.634Z,19.30
2022-08-28T10:56:18.851Z,20.40
2022-08-28T10:57:19.090Z,24.30
2022-08-28T10:58:24.435Z,27.30
2022-08-28T10:59:20.539Z,22.90
2022-08-28T11:00:19.799Z,22.90
2022-08-28T11:01:20.067Z,24.60
2022-08-28T11:02:20.293Z,25.80
2022-08-28T11:03:33.985Z,23.80
2022-08-28T11:04:25.378Z,23.40
2022-08-28T11:05:20.987Z,21.00
2022-08-28T11:06:21.102Z,20.60
2022-08-28T11:07:21.334Z,19.10
2022-08-28T11:08:21.565Z,21.60
2022-08-28T11:09:21.816Z,22.30
2022-08-28T11:10:22.055Z,20.90
2022-08-28T11:11:22.289Z,21.20
2022-08-28T11:12:22.507Z,20.40
2022-08-28T11:13:22.743Z,21.90
2022-08-28T11:14:22.982Z,17.00
2022-08-28T11:15:23.223Z,22.10
2022-08-28T11:16:23.550Z,22.50
2022-08-28T11:17:23.663Z,20.50
2022-08-28T11:18:25.310Z,19.40
2022-08-28T11:19:24.098Z,19.30
2022-08-28T11:20:24.362Z,19.50
2022-08-28T11:21:24.594Z,17.90
2022-08-28T11:22:24.821Z,19.20
2022-08-28T11:23:25.037Z,21.40
2022-08-28T11:24:25.284Z,20.10
2022-08-28T11:25:26.537Z,21.50
2022-08-28T11:26:26.712Z,19.50
2022-08-28T11:27:25.918Z,21.80
2022-08-28T11:28:26.163Z,21.50
2022-08-28T11:29:26.392Z,22.10
2022-08-28T11:30:26.694Z,22.30
2022-08-28T11:31:29.106Z,21.00
2022-08-28T11:32:27.080Z,22.70
2022-08-28T11:33:27.298Z,25.90
2022-08-28T11:34:27.536Z,20.60
2022-08-28T11:35:27.762Z,21.40
2022-08-28T11:36:28.014Z,24.00
2022-08-28T11:37:28.259Z,26.90
2022-08-28T11:38:28.510Z,22.10
2022-08-28T11:39:28.747Z,27.00
2022-08-28T11:40:29.012Z,24.50
2022-08-28T11:41:29.240Z,21.60
2022-08-28T11:42:29.486Z,26.10
2022-08-28T11:43:29.723Z,24.00
2022-08-28T11:44:29.972Z,21.30
2022-08-28T11:45:30.195Z,20.50
2022-08-28T11:46:30.462Z,21.60
2022-08-28T11:47:30.707Z,22.30
2022-08-28T11:48:30.942Z,23.70
2022-08-28T11:49:31.170Z,22.60
2022-08-28T11:50:31.402Z,20.70
2022-08-28T11:51:31.636Z,20.50
2022-08-28T11:52:31.884Z,19.30
2022-08-28T11:53:32.067Z,18.40
2022-08-28T11:54:32.299Z,25.30
2022-08-28T11:55:32.529Z,21.60
2022-08-28T11:56:32.756Z,26.60
2022-08-28T11:57:32.999Z,24.90
2022-08-28T11:58:33.221Z,21.00
2022-08-28T11:59:35.267Z,24.40
2022-08-28T12:00:33.722Z,28.60
2022-08-28T12:01:33.949Z,24.50
2022-08-28T12:02:34.265Z,20.10
2022-08-28T12:03:34.460Z,25.30
2022-08-28T12:04:34.738Z,23.20
2022-08-28T12:05:34.953Z,24.70
2022-08-28T12:06:35.189Z,25.50
2022-08-28T12:07:35.423Z,21.00
2022-08-28T12:08:35.648Z,23.20
2022-08-28T12:09:35.891Z,22.90
2022-08-28T12:10:36.130Z,25.70
2022-08-28T12:11:36.509Z,23.80
2022-08-28T12:12:36.678Z,21.00
2022-08-28T12:13:36.885Z,21.50
2022-08-28T12:14:37.113Z,19.50
2022-08-28T12:15:37.392Z,24.00
2022-08-28T12:16:37.533Z,20.10
2022-08-28T12:17:37.783Z,21.10
2022-08-28T12:18:38.021Z,22.20
2022-08-28T12:19:41.162Z,22.80
2022-08-28T12:20:39.431Z,17.10
2022-08-28T12:21:38.671Z,17.70
2022-08-28T12:22:38.891Z,17.90
2022-08-28T12:23:39.114Z,16.20
2022-08-28T12:24:39.341Z,20.70
2022-08-28T12:25:39.561Z,18.90
2022-08-28T12:26:39.790Z,20.10
2022-08-28T12:27:40.041Z,15.70
2022-08-28T12:28:40.267Z,20.10
2022-08-28T12:29:40.484Z,19.10
2022-08-28T12:30:40.777Z,20.50
2022-08-28T12:31:40.914Z,16.70
2022-08-28T12:32:41.143Z,20.20
2022-08-28T12:33:41.368Z,18.00
2022-08-28T12:34:41.612Z,21.90
2022-08-28T12:35:43.816Z,19.20
2022-08-28T12:36:42.087Z,19.00
2022-08-28T12:37:52.565Z,19.50
2022-08-28T12:38:43.500Z,17.00
2022-08-28T12:39:42.716Z,20.00
2022-08-28T12:40:42.982Z,17.30
2022-08-28T12:41:43.209Z,14.40
2022-08-28T12:42:43.460Z,19.50
2022-08-28T12:43:46.738Z,15.80
2022-08-28T12:44:43.870Z,15.00
2022-08-28T12:45:44.130Z,14.50
2022-08-28T12:46:44.384Z,13.50
2022-08-28T12:47:44.641Z,17.70
2022-08-28T12:48:44.858Z,14.10
2022-08-28T12:49:45.080Z,14.20
2022-08-28T12:50:45.350Z,17.90
2022-08-28T12:51:45.565Z,16.00
2022-08-28T12:52:45.813Z,14.40
2022-08-28T12:53:46.040Z,15.60
2022-08-28T12:54:46.269Z,16.60
2022-08-28T12:55:46.628Z,16.30